sensor_id;sensor_type;location;lat;lon;timestamp;P1;durP1;ratioP1;P2;durP2;ratioP2
41572;SDS011;27286;47.870;19.006;2023-03-23T00:01:26;10.68;;;7.07;;
41572;SDS011;27286;47.870;19.006;2023-03-23T00:03:55;12.50;;;7.20;;
41572;SDS011;27286;47.870;19.006;2023-03-23T00:06:22;19.08;;;12.30;;
41572;SDS011;27286;47.870;19.006;2023-03-23T00:08:52;14.73;;;6.55;;
41572;SDS011;27286;47.870;19.006;2023-03-23T00:11:24;10.15;;;6.63;;
41572;SDS011;27286;47.870;19.006;2023-03-23T00:13:54;10.55;;;6.95;;
41572;SDS011;27286;47.870;19.006;2023-03-23T00:16:22;8.63;;;4.70;;
41572;SDS011;27286;47.870;19.006;2023-03-23T00:19:04;8.15;;;4.78;;
41572;SDS011;27286;47.870;19.006;2023-03-23T00:21:32;15.18;;;8.98;;
41572;SDS011;27286;47.870;19.006;2023-03-23T00:24:04;24.27;;;15.90;;
41572;SDS011;27286;47.870;19.006;2023-03-23T00:26:35;15.30;;;7.78;;
41572;SDS011;27286;47.870;19.006;2023-03-23T00:29:05;11.95;;;6.68;;
41572;SDS011;27286;47.870;19.006;2023-03-23T00:31:32;11.07;;;6.97;;
41572;SDS011;27286;47.870;19.006;2023-03-23T00:34:01;14.07;;;8.63;;
41572;SDS011;27286;47.870;19.006;2023-03-23T00:36:29;15.70;;;9.60;;
41572;SDS011;27286;47.870;19.006;2023-03-23T00:39:00;21.30;;;11.27;;
41572;SDS011;27286;47.870;19.006;2023-03-23T00:41:27;14.98;;;9.82;;
41572;SDS011;27286;47.870;19.006;2023-03-23T00:43:56;18.33;;;7.43;;
41572;SDS011;27286;47.870;19.006;2023-03-23T00:46:23;12.00;;;7.40;;
41572;SDS011;27286;47.870;19.006;2023-03-23T00:48:49;8.68;;;5.53;;
41572;SDS011;27286;47.870;19.006;2023-03-23T00:51:19;11.85;;;6.97;;
41572;SDS011;27286;47.870;19.006;2023-03-23T00:53:45;9.50;;;6.60;;
41572;SDS011;27286;47.870;19.006;2023-03-23T00:56:11;9.85;;;5.88;;
41572;SDS011;27286;47.870;19.006;2023-03-23T00:58:36;13.35;;;7.15;;
41572;SDS011;27286;47.870;19.006;2023-03-23T01:01:02;15.18;;;9.80;;
41572;SDS011;27286;47.870;19.006;2023-03-23T01:03:28;21.75;;;13.90;;
41572;SDS011;27286;47.870;19.006;2023-03-23T01:05:54;20.55;;;13.43;;
41572;SDS011;27286;47.870;19.006;2023-03-23T01:08:20;13.73;;;7.90;;
41572;SDS011;27286;47.870;19.006;2023-03-23T01:10:47;9.88;;;7.70;;
41572;SDS011;27286;47.870;19.006;2023-03-23T01:13:13;10.50;;;6.78;;
41572;SDS011;27286;47.870;19.006;2023-03-23T01:15:39;6.93;;;5.10;;
41572;SDS011;27286;47.870;19.006;2023-03-23T01:18:05;6.88;;;4.50;;
41572;SDS011;27286;47.870;19.006;2023-03-23T01:20:31;8.75;;;5.03;;
41572;SDS011;27286;47.870;19.006;2023-03-23T01:22:57;12.55;;;4.57;;
41572;SDS011;27286;47.870;19.006;2023-03-23T01:25:25;7.10;;;4.45;;
41572;SDS011;27286;47.870;19.006;2023-03-23T01:27:52;7.38;;;4.53;;
41572;SDS011;27286;47.870;19.006;2023-03-23T01:30:18;8.75;;;5.10;;
41572;SDS011;27286;47.870;19.006;2023-03-23T01:32:43;6.40;;;4.18;;
41572;SDS011;27286;47.870;19.006;2023-03-23T01:35:09;9.15;;;3.83;;
41572;SDS011;27286;47.870;19.006;2023-03-23T01:37:34;7.07;;;4.18;;
41572;SDS011;27286;47.870;19.006;2023-03-23T01:40:01;8.02;;;4.75;;
41572;SDS011;27286;47.870;19.006;2023-03-23T01:42:33;10.05;;;6.97;;
41572;SDS011;27286;47.870;19.006;2023-03-23T01:45:45;8.48;;;6.38;;
41572;SDS011;27286;47.870;19.006;2023-03-23T01:47:49;7.72;;;4.82;;
41572;SDS011;27286;47.870;19.006;2023-03-23T01:50:18;10.57;;;4.82;;
41572;SDS011;27286;47.870;19.006;2023-03-23T01:52:47;8.65;;;4.93;;
41572;SDS011;27286;47.870;19.006;2023-03-23T01:55:14;7.85;;;3.97;;
41572;SDS011;27286;47.870;19.006;2023-03-23T01:57:40;7.38;;;4.88;;
41572;SDS011;27286;47.870;19.006;2023-03-23T02:00:07;11.30;;;5.35;;
41572;SDS011;27286;47.870;19.006;2023-03-23T02:02:39;9.95;;;4.90;;
41572;SDS011;27286;47.870;19.006;2023-03-23T02:05:14;8.75;;;5.47;;
41572;SDS011;27286;47.870;19.006;2023-03-23T02:07:44;8.90;;;5.63;;
41572;SDS011;27286;47.870;19.006;2023-03-23T02:10:11;10.23;;;5.63;;
41572;SDS011;27286;47.870;19.006;2023-03-23T02:12:36;7.68;;;4.60;;
41572;SDS011;27286;47.870;19.006;2023-03-23T02:15:02;9.40;;;6.13;;
41572;SDS011;27286;47.870;19.006;2023-03-23T02:17:41;7.80;;;5.05;;
41572;SDS011;27286;47.870;19.006;2023-03-23T02:28:31;12.40;;;8.15;;
41572;SDS011;27286;47.870;19.006;2023-03-23T02:34:22;10.80;;;6.45;;
41572;SDS011;27286;47.870;19.006;2023-03-23T02:37:14;9.82;;;5.60;;
41572;SDS011;27286;47.870;19.006;2023-03-23T02:39:52;10.32;;;5.63;;
41572;SDS011;27286;47.870;19.006;2023-03-23T02:42:24;7.43;;;4.82;;
41572;SDS011;27286;47.870;19.006;2023-03-23T02:44:54;9.88;;;5.60;;
41572;SDS011;27286;47.870;19.006;2023-03-23T02:47:23;8.27;;;4.65;;
41572;SDS011;27286;47.870;19.006;2023-03-23T02:49:53;8.38;;;5.18;;
41572;SDS011;27286;47.870;19.006;2023-03-23T02:52:21;9.63;;;6.28;;
41572;SDS011;27286;47.870;19.006;2023-03-23T02:54:51;10.75;;;5.25;;
41572;SDS011;27286;47.870;19.006;2023-03-23T02:57:19;10.40;;;5.32;;
41572;SDS011;27286;47.870;19.006;2023-03-23T02:59:45;9.75;;;5.13;;
41572;SDS011;27286;47.870;19.006;2023-03-23T03:04:45;10.30;;;4.60;;
41572;SDS011;27286;47.870;19.006;2023-03-23T03:10:08;7.78;;;4.72;;
41572;SDS011;27286;47.870;19.006;2023-03-23T03:13:06;6.95;;;3.90;;
41572;SDS011;27286;47.870;19.006;2023-03-23T03:15:36;7.75;;;3.80;;
41572;SDS011;27286;47.870;19.006;2023-03-23T03:20:40;8.98;;;5.03;;
41572;SDS011;27286;47.870;19.006;2023-03-23T03:23:13;9.30;;;5.97;;
41572;SDS011;27286;47.870;19.006;2023-03-23T03:25:41;8.57;;;5.93;;
41572;SDS011;27286;47.870;19.006;2023-03-23T03:28:13;7.40;;;5.47;;
41572;SDS011;27286;47.870;19.006;2023-03-23T03:30:46;10.13;;;6.00;;
41572;SDS011;27286;47.870;19.006;2023-03-23T03:33:14;9.20;;;4.90;;
41572;SDS011;27286;47.870;19.006;2023-03-23T03:35:42;10.10;;;5.05;;
41572;SDS011;27286;47.870;19.006;2023-03-23T03:38:10;7.03;;;4.50;;
41572;SDS011;27286;47.870;19.006;2023-03-23T03:40:36;7.25;;;4.78;;
41572;SDS011;27286;47.870;19.006;2023-03-23T03:43:03;8.77;;;5.50;;
41572;SDS011;27286;47.870;19.006;2023-03-23T03:45:29;9.25;;;5.45;;
41572;SDS011;27286;47.870;19.006;2023-03-23T03:47:55;11.60;;;6.35;;
41572;SDS011;27286;47.870;19.006;2023-03-23T03:50:21;9.50;;;5.97;;
41572;SDS011;27286;47.870;19.006;2023-03-23T03:52:46;10.52;;;6.38;;
41572;SDS011;27286;47.870;19.006;2023-03-23T03:55:12;9.52;;;5.63;;
41572;SDS011;27286;47.870;19.006;2023-03-23T03:57:37;7.53;;;5.03;;
41572;SDS011;27286;47.870;19.006;2023-03-23T04:00:04;8.40;;;5.03;;
41572;SDS011;27286;47.870;19.006;2023-03-23T04:02:41;9.00;;;4.88;;
41572;SDS011;27286;47.870;19.006;2023-03-23T04:05:08;8.52;;;4.57;;
41572;SDS011;27286;47.870;19.006;2023-03-23T04:07:35;7.22;;;3.95;;
41572;SDS011;27286;47.870;19.006;2023-03-23T04:10:03;8.73;;;4.85;;
41572;SDS011;27286;47.870;19.006;2023-03-23T04:12:30;9.43;;;5.60;;
41572;SDS011;27286;47.870;19.006;2023-03-23T04:14:57;7.30;;;5.22;;
41572;SDS011;27286;47.870;19.006;2023-03-23T04:17:22;10.45;;;5.32;;
41572;SDS011;27286;47.870;19.006;2023-03-23T04:19:51;11.05;;;6.43;;
41572;SDS011;27286;47.870;19.006;2023-03-23T04:22:17;11.23;;;5.47;;
41572;SDS011;27286;47.870;19.006;2023-03-23T04:24:42;10.93;;;5.90;;
41572;SDS011;27286;47.870;19.006;2023-03-23T04:27:07;10.93;;;4.70;;
41572;SDS011;27286;47.870;19.006;2023-03-23T04:29:33;7.55;;;4.45;;
41572;SDS011;27286;47.870;19.006;2023-03-23T04:31:59;7.22;;;3.55;;
41572;SDS011;27286;47.870;19.006;2023-03-23T04:34:26;6.97;;;4.22;;
41572;SDS011;27286;47.870;19.006;2023-03-23T04:36:52;13.05;;;5.13;;
41572;SDS011;27286;47.870;19.006;2023-03-23T04:39:18;6.82;;;4.13;;
41572;SDS011;27286;47.870;19.006;2023-03-23T04:41:44;8.88;;;5.72;;
41572;SDS011;27286;47.870;19.006;2023-03-23T04:44:11;13.65;;;5.50;;
41572;SDS011;27286;47.870;19.006;2023-03-23T04:46:42;10.43;;;5.80;;
41572;SDS011;27286;47.870;19.006;2023-03-23T04:49:10;10.65;;;6.85;;
41572;SDS011;27286;47.870;19.006;2023-03-23T04:51:36;10.55;;;5.32;;
41572;SDS011;27286;47.870;19.006;2023-03-23T04:54:04;7.20;;;4.82;;
41572;SDS011;27286;47.870;19.006;2023-03-23T04:56:29;10.90;;;5.35;;
41572;SDS011;27286;47.870;19.006;2023-03-23T04:58:55;8.30;;;5.00;;
41572;SDS011;27286;47.870;19.006;2023-03-23T05:01:20;8.85;;;4.30;;
41572;SDS011;27286;47.870;19.006;2023-03-23T05:03:46;5.90;;;4.10;;
41572;SDS011;27286;47.870;19.006;2023-03-23T05:06:11;8.10;;;4.70;;
41572;SDS011;27286;47.870;19.006;2023-03-23T05:08:37;9.55;;;5.30;;
41572;SDS011;27286;47.870;19.006;2023-03-23T05:11:04;7.65;;;4.88;;
41572;SDS011;27286;47.870;19.006;2023-03-23T05:13:30;11.10;;;4.82;;
41572;SDS011;27286;47.870;19.006;2023-03-23T05:15:56;8.65;;;6.45;;
41572;SDS011;27286;47.870;19.006;2023-03-23T05:18:22;7.35;;;4.68;;
41572;SDS011;27286;47.870;19.006;2023-03-23T05:20:47;7.15;;;5.15;;
41572;SDS011;27286;47.870;19.006;2023-03-23T05:23:13;7.88;;;5.05;;
41572;SDS011;27286;47.870;19.006;2023-03-23T05:25:39;9.98;;;5.40;;
41572;SDS011;27286;47.870;19.006;2023-03-23T05:28:11;11.20;;;4.50;;
41572;SDS011;27286;47.870;19.006;2023-03-23T05:30:37;7.43;;;4.90;;
41572;SDS011;27286;47.870;19.006;2023-03-23T05:33:03;11.25;;;5.70;;
41572;SDS011;27286;47.870;19.006;2023-03-23T05:35:30;12.65;;;6.47;;
41572;SDS011;27286;47.870;19.006;2023-03-23T05:37:56;9.85;;;7.03;;
41572;SDS011;27286;47.870;19.006;2023-03-23T05:40:24;12.23;;;8.15;;
41572;SDS011;27286;47.870;19.006;2023-03-23T05:42:51;11.40;;;6.03;;
41572;SDS011;27286;47.870;19.006;2023-03-23T05:45:17;10.05;;;6.35;;
41572;SDS011;27286;47.870;19.006;2023-03-23T05:47:43;8.75;;;6.35;;
41572;SDS011;27286;47.870;19.006;2023-03-23T05:50:10;17.13;;;8.32;;
41572;SDS011;27286;47.870;19.006;2023-03-23T05:52:37;19.63;;;9.18;;
41572;SDS011;27286;47.870;19.006;2023-03-23T05:55:04;21.55;;;11.43;;
41572;SDS011;27286;47.870;19.006;2023-03-23T05:57:30;30.63;;;13.98;;
41572;SDS011;27286;47.870;19.006;2023-03-23T05:59:56;22.60;;;14.27;;
41572;SDS011;27286;47.870;19.006;2023-03-23T06:02:22;21.38;;;14.68;;
41572;SDS011;27286;47.870;19.006;2023-03-23T06:04:49;18.15;;;12.57;;
41572;SDS011;27286;47.870;19.006;2023-03-23T06:07:14;17.25;;;12.32;;
41572;SDS011;27286;47.870;19.006;2023-03-23T06:09:40;21.67;;;12.15;;
41572;SDS011;27286;47.870;19.006;2023-03-23T06:12:06;25.90;;;12.82;;
41572;SDS011;27286;47.870;19.006;2023-03-23T06:14:32;23.35;;;14.07;;
41572;SDS011;27286;47.870;19.006;2023-03-23T06:16:58;26.33;;;12.50;;
41572;SDS011;27286;47.870;19.006;2023-03-23T06:19:24;20.58;;;11.77;;
41572;SDS011;27286;47.870;19.006;2023-03-23T06:21:51;18.00;;;12.73;;
41572;SDS011;27286;47.870;19.006;2023-03-23T06:24:17;17.58;;;11.95;;
41572;SDS011;27286;47.870;19.006;2023-03-23T06:26:43;17.38;;;12.77;;
41572;SDS011;27286;47.870;19.006;2023-03-23T06:29:09;20.95;;;13.23;;
41572;SDS011;27286;47.870;19.006;2023-03-23T06:31:38;18.60;;;13.95;;
41572;SDS011;27286;47.870;19.006;2023-03-23T06:34:16;29.25;;;15.35;;
41572;SDS011;27286;47.870;19.006;2023-03-23T06:36:41;20.63;;;15.15;;
41572;SDS011;27286;47.870;19.006;2023-03-23T06:39:09;35.13;;;17.90;;
41572;SDS011;27286;47.870;19.006;2023-03-23T06:41:36;28.63;;;17.95;;
41572;SDS011;27286;47.870;19.006;2023-03-23T06:44:01;21.90;;;15.73;;
41572;SDS011;27286;47.870;19.006;2023-03-23T06:46:27;24.92;;;16.65;;
41572;SDS011;27286;47.870;19.006;2023-03-23T06:48:53;16.05;;;13.23;;
41572;SDS011;27286;47.870;19.006;2023-03-23T06:51:19;24.27;;;11.73;;
41572;SDS011;27286;47.870;19.006;2023-03-23T06:53:45;20.73;;;9.95;;
41572;SDS011;27286;47.870;19.006;2023-03-23T06:56:11;14.55;;;10.27;;
41572;SDS011;27286;47.870;19.006;2023-03-23T06:58:38;17.65;;;10.63;;
41572;SDS011;27286;47.870;19.006;2023-03-23T07:01:04;14.25;;;9.32;;
41572;SDS011;27286;47.870;19.006;2023-03-23T07:03:30;13.05;;;8.80;;
41572;SDS011;27286;47.870;19.006;2023-03-23T07:05:57;16.48;;;9.80;;
41572;SDS011;27286;47.870;19.006;2023-03-23T07:08:23;12.70;;;8.05;;
41572;SDS011;27286;47.870;19.006;2023-03-23T07:10:52;12.60;;;8.25;;
41572;SDS011;27286;47.870;19.006;2023-03-23T07:13:18;13.57;;;8.45;;
41572;SDS011;27286;47.870;19.006;2023-03-23T07:15:44;13.52;;;8.75;;
41572;SDS011;27286;47.870;19.006;2023-03-23T07:18:10;18.50;;;9.85;;
41572;SDS011;27286;47.870;19.006;2023-03-23T07:20:35;13.20;;;8.07;;
41572;SDS011;27286;47.870;19.006;2023-03-23T07:23:01;13.20;;;8.27;;
41572;SDS011;27286;47.870;19.006;2023-03-23T07:25:27;13.27;;;8.48;;
41572;SDS011;27286;47.870;19.006;2023-03-23T07:27:53;14.88;;;8.57;;
41572;SDS011;27286;47.870;19.006;2023-03-23T07:30:19;12.63;;;8.88;;
41572;SDS011;27286;47.870;19.006;2023-03-23T07:32:44;13.15;;;8.65;;
41572;SDS011;27286;47.870;19.006;2023-03-23T07:35:10;12.15;;;8.15;;
41572;SDS011;27286;47.870;19.006;2023-03-23T07:37:36;12.77;;;8.85;;
41572;SDS011;27286;47.870;19.006;2023-03-23T07:40:02;12.75;;;8.70;;
41572;SDS011;27286;47.870;19.006;2023-03-23T07:42:40;12.00;;;7.78;;
41572;SDS011;27286;47.870;19.006;2023-03-23T07:45:07;10.95;;;8.05;;
41572;SDS011;27286;47.870;19.006;2023-03-23T07:47:33;12.20;;;8.95;;
41572;SDS011;27286;47.870;19.006;2023-03-23T07:49:59;9.70;;;7.70;;
41572;SDS011;27286;47.870;19.006;2023-03-23T07:52:25;19.33;;;8.35;;
41572;SDS011;27286;47.870;19.006;2023-03-23T07:54:50;34.25;;;10.18;;
41572;SDS011;27286;47.870;19.006;2023-03-23T07:57:16;10.40;;;7.43;;
41572;SDS011;27286;47.870;19.006;2023-03-23T07:59:41;11.63;;;8.70;;
41572;SDS011;27286;47.870;19.006;2023-03-23T08:02:07;16.35;;;9.05;;
41572;SDS011;27286;47.870;19.006;2023-03-23T08:04:34;17.00;;;8.80;;
41572;SDS011;27286;47.870;19.006;2023-03-23T08:07:02;10.65;;;7.75;;
41572;SDS011;27286;47.870;19.006;2023-03-23T08:09:29;12.07;;;8.10;;
41572;SDS011;27286;47.870;19.006;2023-03-23T08:11:55;10.98;;;7.80;;
41572;SDS011;27286;47.870;19.006;2023-03-23T08:14:21;8.90;;;7.63;;
41572;SDS011;27286;47.870;19.006;2023-03-23T08:16:46;8.82;;;7.18;;
41572;SDS011;27286;47.870;19.006;2023-03-23T08:19:13;9.70;;;7.82;;
41572;SDS011;27286;47.870;19.006;2023-03-23T08:21:39;9.40;;;7.60;;
41572;SDS011;27286;47.870;19.006;2023-03-23T08:24:04;11.38;;;7.65;;
41572;SDS011;27286;47.870;19.006;2023-03-23T08:26:31;13.77;;;7.25;;
41572;SDS011;27286;47.870;19.006;2023-03-23T08:28:56;12.43;;;7.78;;
41572;SDS011;27286;47.870;19.006;2023-03-23T08:31:22;12.80;;;7.88;;
41572;SDS011;27286;47.870;19.006;2023-03-23T08:33:48;17.48;;;7.95;;
41572;SDS011;27286;47.870;19.006;2023-03-23T08:36:14;12.43;;;6.30;;
41572;SDS011;27286;47.870;19.006;2023-03-23T08:38:40;10.77;;;6.75;;
41572;SDS011;27286;47.870;19.006;2023-03-23T08:41:05;13.00;;;7.05;;
41572;SDS011;27286;47.870;19.006;2023-03-23T08:43:33;12.52;;;6.63;;
41572;SDS011;27286;47.870;19.006;2023-03-23T08:45:59;13.75;;;6.63;;
41572;SDS011;27286;47.870;19.006;2023-03-23T08:48:24;12.27;;;6.90;;
41572;SDS011;27286;47.870;19.006;2023-03-23T08:50:50;11.75;;;6.57;;
41572;SDS011;27286;47.870;19.006;2023-03-23T08:53:17;12.13;;;7.47;;
41572;SDS011;27286;47.870;19.006;2023-03-23T08:55:43;10.02;;;6.32;;
41572;SDS011;27286;47.870;19.006;2023-03-23T08:58:09;16.23;;;7.25;;
41572;SDS011;27286;47.870;19.006;2023-03-23T09:00:35;8.40;;;6.38;;
41572;SDS011;27286;47.870;19.006;2023-03-23T09:03:00;12.55;;;6.85;;
41572;SDS011;27286;47.870;19.006;2023-03-23T09:05:27;12.32;;;6.30;;
41572;SDS011;27286;47.870;19.006;2023-03-23T09:07:54;11.80;;;6.78;;
41572;SDS011;27286;47.870;19.006;2023-03-23T09:10:24;41.05;;;8.65;;
41572;SDS011;27286;47.870;19.006;2023-03-23T09:12:51;10.70;;;6.78;;
41572;SDS011;27286;47.870;19.006;2023-03-23T09:15:17;8.23;;;6.53;;
41572;SDS011;27286;47.870;19.006;2023-03-23T09:17:46;15.75;;;7.15;;
41572;SDS011;27286;47.870;19.006;2023-03-23T09:20:15;11.65;;;8.50;;
41572;SDS011;27286;47.870;19.006;2023-03-23T09:22:46;10.27;;;7.03;;
41572;SDS011;27286;47.870;19.006;2023-03-23T09:25:14;11.90;;;7.85;;
41572;SDS011;27286;47.870;19.006;2023-03-23T09:27:44;10.00;;;7.40;;
41572;SDS011;27286;47.870;19.006;2023-03-23T09:30:13;16.95;;;8.32;;
41572;SDS011;27286;47.870;19.006;2023-03-23T09:32:39;10.98;;;7.80;;
41572;SDS011;27286;47.870;19.006;2023-03-23T09:35:07;12.27;;;7.07;;
41572;SDS011;27286;47.870;19.006;2023-03-23T09:37:36;17.00;;;7.00;;
41572;SDS011;27286;47.870;19.006;2023-03-23T09:40:03;11.30;;;7.50;;
41572;SDS011;27286;47.870;19.006;2023-03-23T09:50:50;12.82;;;6.95;;
41572;SDS011;27286;47.870;19.006;2023-03-23T09:53:27;11.60;;;7.35;;
41572;SDS011;27286;47.870;19.006;2023-03-23T09:56:02;12.57;;;7.22;;
41572;SDS011;27286;47.870;19.006;2023-03-23T09:58:39;13.48;;;6.55;;
41572;SDS011;27286;47.870;19.006;2023-03-23T10:03:48;9.70;;;7.32;;
41572;SDS011;27286;47.870;19.006;2023-03-23T10:06:22;8.35;;;6.90;;
41572;SDS011;27286;47.870;19.006;2023-03-23T10:08:52;13.38;;;7.70;;
41572;SDS011;27286;47.870;19.006;2023-03-23T10:22:11;13.48;;;6.35;;
41572;SDS011;27286;47.870;19.006;2023-03-23T10:25:03;17.38;;;7.53;;
41572;SDS011;27286;47.870;19.006;2023-03-23T10:30:42;12.32;;;6.78;;
41572;SDS011;27286;47.870;19.006;2023-03-23T10:33:13;14.35;;;7.47;;
41572;SDS011;27286;47.870;19.006;2023-03-23T10:35:48;10.40;;;6.57;;
41572;SDS011;27286;47.870;19.006;2023-03-23T10:38:53;9.32;;;6.95;;
41572;SDS011;27286;47.870;19.006;2023-03-23T10:41:28;9.68;;;6.15;;
41572;SDS011;27286;47.870;19.006;2023-03-23T10:43:55;14.95;;;8.60;;
41572;SDS011;27286;47.870;19.006;2023-03-23T10:49:24;12.52;;;5.35;;
41572;SDS011;27286;47.870;19.006;2023-03-23T10:52:05;8.20;;;5.53;;
41572;SDS011;27286;47.870;19.006;2023-03-23T10:54:55;7.80;;;5.68;;
41572;SDS011;27286;47.870;19.006;2023-03-23T10:57:27;11.05;;;5.53;;
41572;SDS011;27286;47.870;19.006;2023-03-23T10:59:58;11.10;;;5.30;;
41572;SDS011;27286;47.870;19.006;2023-03-23T11:02:26;16.08;;;5.18;;
41572;SDS011;27286;47.870;19.006;2023-03-23T11:04:54;12.65;;;6.18;;
41572;SDS011;27286;47.870;19.006;2023-03-23T11:07:27;31.67;;;6.63;;
41572;SDS011;27286;47.870;19.006;2023-03-23T11:10:07;8.40;;;6.25;;
41572;SDS011;27286;47.870;19.006;2023-03-23T11:12:46;10.15;;;4.93;;
41572;SDS011;27286;47.870;19.006;2023-03-23T11:15:20;9.93;;;5.28;;
41572;SDS011;27286;47.870;19.006;2023-03-23T11:18:12;7.85;;;4.93;;
41572;SDS011;27286;47.870;19.006;2023-03-23T11:20:48;18.90;;;5.60;;
41572;SDS011;27286;47.870;19.006;2023-03-23T11:23:43;10.63;;;5.55;;
41572;SDS011;27286;47.870;19.006;2023-03-23T11:28:34;8.13;;;5.90;;
41572;SDS011;27286;47.870;19.006;2023-03-23T11:31:03;6.45;;;4.55;;
41572;SDS011;27286;47.870;19.006;2023-03-23T11:36:33;6.82;;;5.47;;
41572;SDS011;27286;47.870;19.006;2023-03-23T11:39:03;9.68;;;6.35;;
41572;SDS011;27286;47.870;19.006;2023-03-23T11:41:49;12.88;;;5.07;;
41572;SDS011;27286;47.870;19.006;2023-03-23T11:44:14;8.82;;;5.50;;
41572;SDS011;27286;47.870;19.006;2023-03-23T11:46:42;8.25;;;5.35;;
41572;SDS011;27286;47.870;19.006;2023-03-23T11:49:18;11.43;;;5.00;;
41572;SDS011;27286;47.870;19.006;2023-03-23T11:51:58;11.43;;;4.22;;
41572;SDS011;27286;47.870;19.006;2023-03-23T11:54:41;8.05;;;3.97;;
41572;SDS011;27286;47.870;19.006;2023-03-23T11:57:12;11.43;;;4.30;;
41572;SDS011;27286;47.870;19.006;2023-03-23T11:59:38;10.77;;;4.72;;
41572;SDS011;27286;47.870;19.006;2023-03-23T12:12:49;14.05;;;3.58;;
41572;SDS011;27286;47.870;19.006;2023-03-23T12:15:37;5.82;;;3.33;;
41572;SDS011;27286;47.870;19.006;2023-03-23T12:26:28;6.65;;;3.30;;
41572;SDS011;27286;47.870;19.006;2023-03-23T12:34:13;3.33;;;2.03;;
41572;SDS011;27286;47.870;19.006;2023-03-23T12:44:46;10.15;;;2.42;;
41572;SDS011;27286;47.870;19.006;2023-03-23T12:49:44;12.63;;;4.70;;
41572;SDS011;27286;47.870;19.006;2023-03-23T12:52:28;10.88;;;3.15;;
41572;SDS011;27286;47.870;19.006;2023-03-23T12:55:06;7.57;;;2.47;;
41572;SDS011;27286;47.870;19.006;2023-03-23T12:58:05;5.90;;;2.22;;
41572;SDS011;27286;47.870;19.006;2023-03-23T13:03:25;7.85;;;2.20;;
41572;SDS011;27286;47.870;19.006;2023-03-23T13:11:39;6.80;;;2.80;;
41572;SDS011;27286;47.870;19.006;2023-03-23T13:14:18;8.32;;;1.88;;
41572;SDS011;27286;47.870;19.006;2023-03-23T13:19:34;25.83;;;3.17;;
41572;SDS011;27286;47.870;19.006;2023-03-23T13:22:37;2.53;;;1.58;;
41572;SDS011;27286;47.870;19.006;2023-03-23T13:25:19;10.95;;;1.95;;
41572;SDS011;27286;47.870;19.006;2023-03-23T13:28:00;6.60;;;1.60;;
41572;SDS011;27286;47.870;19.006;2023-03-23T13:33:00;9.88;;;2.72;;
41572;SDS011;27286;47.870;19.006;2023-03-23T13:37:58;8.73;;;2.17;;
41572;SDS011;27286;47.870;19.006;2023-03-23T13:40:25;5.85;;;2.53;;
41572;SDS011;27286;47.870;19.006;2023-03-23T13:42:53;4.57;;;1.80;;
41572;SDS011;27286;47.870;19.006;2023-03-23T13:48:03;3.45;;;1.70;;
41572;SDS011;27286;47.870;19.006;2023-03-23T13:50:31;7.32;;;1.58;;
41572;SDS011;27286;47.870;19.006;2023-03-23T13:53:14;6.85;;;1.67;;
41572;SDS011;27286;47.870;19.006;2023-03-23T13:55:51;9.43;;;1.60;;
41572;SDS011;27286;47.870;19.006;2023-03-23T13:58:28;10.85;;;1.42;;
41572;SDS011;27286;47.870;19.006;2023-03-23T14:03:40;3.90;;;1.67;;
41572;SDS011;27286;47.870;19.006;2023-03-23T14:06:15;6.72;;;1.08;;
41572;SDS011;27286;47.870;19.006;2023-03-23T14:08:44;3.53;;;1.27;;
41572;SDS011;27286;47.870;19.006;2023-03-23T14:16:15;3.60;;;1.55;;
41572;SDS011;27286;47.870;19.006;2023-03-23T14:19:02;9.38;;;2.28;;
41572;SDS011;27286;47.870;19.006;2023-03-23T14:24:09;6.82;;;2.40;;
41572;SDS011;27286;47.870;19.006;2023-03-23T14:26:37;5.63;;;2.85;;
41572;SDS011;27286;47.870;19.006;2023-03-23T14:29:04;6.07;;;3.15;;
41572;SDS011;27286;47.870;19.006;2023-03-23T14:31:31;6.57;;;4.57;;
41572;SDS011;27286;47.870;19.006;2023-03-23T14:34:00;5.18;;;3.05;;
41572;SDS011;27286;47.870;19.006;2023-03-23T14:36:29;10.50;;;3.25;;
41572;SDS011;27286;47.870;19.006;2023-03-23T14:39:17;6.75;;;3.88;;
41572;SDS011;27286;47.870;19.006;2023-03-23T14:41:51;17.90;;;1.73;;
41572;SDS011;27286;47.870;19.006;2023-03-23T14:44:26;4.57;;;2.13;;
41572;SDS011;27286;47.870;19.006;2023-03-23T14:46:57;6.80;;;2.38;;
41572;SDS011;27286;47.870;19.006;2023-03-23T14:49:40;5.53;;;1.80;;
41572;SDS011;27286;47.870;19.006;2023-03-23T14:52:17;16.00;;;3.65;;
41572;SDS011;27286;47.870;19.006;2023-03-23T14:54:43;20.08;;;3.45;;
41572;SDS011;27286;47.870;19.006;2023-03-23T14:59:52;7.40;;;2.17;;
41572;SDS011;27286;47.870;19.006;2023-03-23T15:02:29;6.55;;;1.95;;
41572;SDS011;27286;47.870;19.006;2023-03-23T15:05:02;3.90;;;1.17;;
41572;SDS011;27286;47.870;19.006;2023-03-23T15:07:34;11.38;;;2.20;;
41572;SDS011;27286;47.870;19.006;2023-03-23T15:10:05;10.85;;;3.63;;
41572;SDS011;27286;47.870;19.006;2023-03-23T15:12:31;10.40;;;1.85;;
41572;SDS011;27286;47.870;19.006;2023-03-23T15:15:02;6.65;;;2.45;;
41572;SDS011;27286;47.870;19.006;2023-03-23T15:17:31;7.65;;;3.83;;
41572;SDS011;27286;47.870;19.006;2023-03-23T15:20:07;10.60;;;5.00;;
41572;SDS011;27286;47.870;19.006;2023-03-23T15:22:34;11.80;;;2.42;;
41572;SDS011;27286;47.870;19.006;2023-03-23T15:32:51;5.32;;;1.08;;
41572;SDS011;27286;47.870;19.006;2023-03-23T15:35:20;4.68;;;1.67;;
41572;SDS011;27286;47.870;19.006;2023-03-23T15:37:49;5.43;;;1.02;;
41572;SDS011;27286;47.870;19.006;2023-03-23T15:40:19;10.32;;;2.95;;
41572;SDS011;27286;47.870;19.006;2023-03-23T15:42:49;3.13;;;1.38;;
41572;SDS011;27286;47.870;19.006;2023-03-23T15:45:29;12.75;;;1.60;;
41572;SDS011;27286;47.870;19.006;2023-03-23T15:47:57;16.85;;;1.98;;
41572;SDS011;27286;47.870;19.006;2023-03-23T15:52:54;3.88;;;1.38;;
41572;SDS011;27286;47.870;19.006;2023-03-23T15:57:53;4.45;;;1.45;;
41572;SDS011;27286;47.870;19.006;2023-03-23T16:00:21;9.00;;;1.65;;
41572;SDS011;27286;47.870;19.006;2023-03-23T16:02:51;28.42;;;16.80;;
41572;SDS011;27286;47.870;19.006;2023-03-23T16:05:19;7.20;;;3.00;;
41572;SDS011;27286;47.870;19.006;2023-03-23T16:07:45;7.90;;;2.28;;
41572;SDS011;27286;47.870;19.006;2023-03-23T16:10:15;7.32;;;1.95;;
41572;SDS011;27286;47.870;19.006;2023-03-23T16:12:42;6.38;;;1.67;;
41572;SDS011;27286;47.870;19.006;2023-03-23T16:15:08;8.48;;;2.95;;
41572;SDS011;27286;47.870;19.006;2023-03-23T16:17:33;4.68;;;2.08;;
41572;SDS011;27286;47.870;19.006;2023-03-23T16:19:59;5.50;;;2.67;;
41572;SDS011;27286;47.870;19.006;2023-03-23T16:22:24;3.83;;;2.08;;
41572;SDS011;27286;47.870;19.006;2023-03-23T16:24:50;7.30;;;2.85;;
41572;SDS011;27286;47.870;19.006;2023-03-23T16:27:15;3.67;;;2.33;;
41572;SDS011;27286;47.870;19.006;2023-03-23T16:29:41;5.63;;;1.90;;
41572;SDS011;27286;47.870;19.006;2023-03-23T16:32:07;6.10;;;2.45;;
41572;SDS011;27286;47.870;19.006;2023-03-23T16:34:32;9.32;;;2.72;;
41572;SDS011;27286;47.870;19.006;2023-03-23T16:36:59;23.17;;;12.95;;
41572;SDS011;27286;47.870;19.006;2023-03-23T16:39:25;24.08;;;10.35;;
41572;SDS011;27286;47.870;19.006;2023-03-23T16:41:51;23.05;;;12.88;;
41572;SDS011;27286;47.870;19.006;2023-03-23T16:44:17;22.83;;;13.38;;
41572;SDS011;27286;47.870;19.006;2023-03-23T16:46:43;25.30;;;15.07;;
41572;SDS011;27286;47.870;19.006;2023-03-23T16:49:08;33.63;;;11.18;;
41572;SDS011;27286;47.870;19.006;2023-03-23T16:51:34;15.65;;;9.88;;